^^
Station Historical Data
 
Daily Summary for December 22, 2014 Units:  Metric    English   Both
« Previous Day
Next Day »
Daily Weekly Monthly Yearly Custom
  Current: High: Low: Average:
Temperature: 3.6 °C 6.2 °C 0.4 °C 3.2 °C
Dew Point: 0.1 °C 1.9 °C -0.8 °C 0.6 °C
Humidity: 78% 94% 72% 84%
Wind Speed: 0.0km/h 7.6km/h 0.0km/h 1.1km/h
Wind Gust: 0.0km/h 19.3km/h - -
WindCalm - - West
Pressure: 1029.3 hPa 1033.1 hPa 1028.3 hPa -
Precipitation: 0.3 mm      
Historical Graphs
 
 
Tabular Data for December 22, 2014
Time Temperature Dew Point Pressure Wind Wind Speed Wind Gust Humidity Rainfall Rate (Hourly) solar Conditions
00:05 1.2 °C 0.2 °C 1033.1 hPa NW 0.2 km/h 3.2 km/h 93% 0.0 mm 0 W/m2
00:10 1.2 °C 0.2 °C 1033.1 hPa Calm   1.6 km/h 93% 0.0 mm 0 W/m2
00:20 1.1 °C -0.1 °C 1033.1 hPa NW 0.2 km/h 3.2 km/h 92% 0.0 mm 0 W/m2
00:25 1.1 °C -0.1 °C 1033.1 hPa Calm     92% 0.0 mm 0 W/m2
00:30 1.1 °C -0.1 °C 1032.7 hPa NW 0.2 km/h 3.2 km/h 92% 0.0 mm 0 W/m2
00:35 1.1 °C -0.1 °C 1032.7 hPa Calm     92% 0.0 mm 0 W/m2
00:40 1.0 °C -0.2 °C 1032.7 hPa Calm     92% 0.0 mm 0 W/m2
00:45 1.0 °C -0.2 °C 1032.4 hPa Calm     92% 0.0 mm 0 W/m2
00:50 0.9 °C -0.2 °C 1032.4 hPa Calm     92% 0.0 mm 0 W/m2
00:55 0.9 °C -0.2 °C 1032.4 hPa Calm     92% 0.0 mm 0 W/m2
01:00 0.9 °C -0.2 °C 1032.7 hPa Calm     92% 0.0 mm 0 W/m2
01:05 0.9 °C -0.2 °C 1032.7 hPa Calm     92% 0.0 mm 0 W/m2
01:10 0.8 °C -0.3 °C 1032.1 hPa Calm     92% 0.0 mm 0 W/m2
01:15 0.8 °C -0.3 °C 1032.1 hPa Calm     92% 0.0 mm 0 W/m2
01:20 0.8 °C -0.3 °C 1032.1 hPa Calm   1.6 km/h 92% 0.0 mm 0 W/m2
01:25 0.8 °C -0.3 °C 1032.1 hPa Calm   1.6 km/h 92% 0.0 mm 0 W/m2
01:30 0.7 °C -0.4 °C 1032.1 hPa Calm     92% 0.0 mm 0 W/m2
01:35 0.7 °C -0.4 °C 1032.1 hPa Calm     92% 0.0 mm 0 W/m2
01:40 0.7 °C -0.4 °C 1032.1 hPa NW 0.2 km/h 3.2 km/h 92% 0.0 mm 0 W/m2
01:45 0.7 °C -0.4 °C 1032.1 hPa Calm     92% 0.0 mm 0 W/m2
01:50 0.7 °C -0.4 °C 1032.1 hPa NW 0.2 km/h 4.8 km/h 92% 0.0 mm 0 W/m2
01:55 0.7 °C -0.4 °C 1032.1 hPa NW 0.2 km/h 1.6 km/h 92% 0.0 mm 0 W/m2
02:00 0.7 °C -0.4 °C 1032.1 hPa NW 0.3 km/h 3.2 km/h 92% 0.0 mm 0 W/m2
02:10 0.7 °C -0.4 °C 1032.1 hPa NW 0.3 km/h 4.8 km/h 92% 0.0 mm 0 W/m2
02:15 0.7 °C -0.4 °C 1032.1 hPa Calm   1.6 km/h 92% 0.0 mm 0 W/m2
02:20 0.7 °C -0.4 °C 1032.1 hPa NW 0.3 km/h 3.2 km/h 92% 0.0 mm 0 W/m2
02:25 0.7 °C -0.4 °C 1032.1 hPa NW 1.1 km/h 8.0 km/h 92% 0.0 mm 0 W/m2
02:30 0.7 °C -0.4 °C 1032.1 hPa NW 0.3 km/h 4.8 km/h 92% 0.0 mm 0 W/m2
02:35 0.7 °C -0.4 °C 1032.1 hPa WNW 0.6 km/h 6.4 km/h 92% 0.0 mm 0 W/m2
02:40 0.8 °C -0.3 °C 1032.1 hPa WNW 0.6 km/h 3.2 km/h 92% 0.0 mm 0 W/m2
02:45 0.8 °C -0.3 °C 1032.1 hPa WNW 0.2 km/h 3.2 km/h 92% 0.0 mm 0 W/m2
02:50 0.8 °C -0.3 °C 1032.1 hPa WNW 0.8 km/h 6.4 km/h 92% 0.0 mm 0 W/m2
02:55 0.8 °C -0.3 °C 1032.1 hPa WNW 0.3 km/h 4.8 km/h 92% 0.0 mm 0 W/m2
03:00 0.8 °C -0.3 °C 1032.1 hPa Calm     92% 0.0 mm 0 W/m2
03:05 0.8 °C -0.3 °C 1032.1 hPa Calm     92% 0.0 mm 0 W/m2
03:10 0.8 °C -0.3 °C 1032.4 hPa WNW 0.2 km/h 1.6 km/h 92% 0.0 mm 0 W/m2
03:15 0.8 °C -0.3 °C 1032.1 hPa WNW 0.2 km/h 3.2 km/h 92% 0.0 mm 0 W/m2
03:20 0.9 °C -0.2 °C 1032.4 hPa WNW 0.2 km/h 1.6 km/h 92% 0.0 mm 0 W/m2
03:25 0.9 °C -0.1 °C 1032.4 hPa WNW 0.3 km/h 4.8 km/h 93% 0.0 mm 0 W/m2
03:30 0.9 °C -0.2 °C 1032.4 hPa WNW 0.2 km/h 3.2 km/h 92% 0.0 mm 0 W/m2
03:35 0.9 °C -0.1 °C 1032.4 hPa West 1.1 km/h 6.4 km/h 93% 0.0 mm 0 W/m2
03:45 0.9 °C -0.1 °C 1032.1 hPa West 0.6 km/h 4.8 km/h 93% 0.0 mm 0 W/m2
03:50 1.0 °C -0.2 °C 1032.1 hPa Calm     92% 0.0 mm 0 W/m2
03:55 1.0 °C -0.2 °C 1032.1 hPa Calm     92% 0.0 mm 0 W/m2
04:00 1.0 °C -0.2 °C 1032.1 hPa Calm     92% 0.0 mm 0 W/m2
06:50 0.9 °C -0.2 °C 1031.4 hPa West 1.0 km/h 4.8 km/h 92% 0.0 mm 0 W/m2
06:55 0.9 °C -0.2 °C 1031.4 hPa West 1.4 km/h 8.0 km/h 92% 0.0 mm 0 W/m2
07:00 0.9 °C -0.2 °C 1031.4 hPa West 3.2 km/h 12.9 km/h 92% 0.0 mm 0 W/m2
07:05 0.9 °C -0.2 °C 1031.4 hPa West 1.4 km/h 6.4 km/h 92% 0.0 mm 0 W/m2
07:10 0.9 °C -0.2 °C 1031.4 hPa West 1.6 km/h 6.4 km/h 92% 0.0 mm 0 W/m2
07:15 0.9 °C -0.2 °C 1031.0 hPa SW 1.0 km/h 6.4 km/h 92% 0.0 mm 0 W/m2
07:20 0.9 °C -0.2 °C 1031.0 hPa West 1.8 km/h 8.0 km/h 92% 0.0 mm 0 W/m2
07:25 0.9 °C -0.2 °C 1031.0 hPa SW 1.8 km/h 7.6 km/h 92% 0.0 mm 0 W/m2
07:30 0.9 °C -0.2 °C 1031.0 hPa WSW 1.8 km/h 4.8 km/h 92% 0.0 mm 0 W/m2
07:35 1.0 °C -0.2 °C 1031.4 hPa West 0.6 km/h 6.4 km/h 92% 0.0 mm 0 W/m2
07:40 1.0 °C -0.2 °C 1031.4 hPa West 1.0 km/h 8.0 km/h 92% 0.0 mm 0 W/m2
07:45 1.0 °C -0.2 °C 1031.4 hPa West 2.3 km/h 11.3 km/h 92% 0.0 mm 0 W/m2
07:50 1.0 °C -0.2 °C 1031.4 hPa West 1.0 km/h 4.8 km/h 92% 0.0 mm 0 W/m2
07:55 1.0 °C -0.2 °C 1031.4 hPa West 0.2 km/h 3.2 km/h 92% 0.0 mm 0 W/m2
08:00 1.0 °C -0.2 °C 1031.4 hPa West 0.2 km/h 4.8 km/h 92% 0.0 mm 0 W/m2
08:05 1.0 °C -0.2 °C 1031.7 hPa Calm     92% 0.0 mm 0 W/m2
08:10 0.9 °C -0.2 °C 1031.7 hPa West 0.2 km/h 3.2 km/h 92% 0.0 mm 0 W/m2
08:15 0.9 °C -0.4 °C 1031.4 hPa West 0.2 km/h 4.8 km/h 91% 0.0 mm 5 W/m2
08:20 0.8 °C -0.5 °C 1031.4 hPa West 0.2 km/h 3.2 km/h 91% 0.0 mm 7 W/m2
08:25 0.8 °C -0.5 °C 1031.4 hPa Calm   1.6 km/h 91% 0.0 mm 9 W/m2
08:36 0.7 °C -0.6 °C 1031.4 hPa Calm     91% 0.0 mm 16 W/m2
08:45 0.7 °C -0.6 °C 1031.4 hPa Calm     91% 0.0 mm 16 W/m2
08:50 0.6 °C -0.7 °C 1031.7 hPa Calm     91% 0.0 mm 14 W/m2
08:55 0.6 °C -0.7 °C 1031.7 hPa Calm     91% 0.0 mm 14 W/m2
09:00 0.5 °C -0.8 °C 1031.7 hPa Calm     91% 0.0 mm 14 W/m2
09:05 0.5 °C -0.7 °C 1032.1 hPa Calm     92% 0.0 mm 16 W/m2
09:10 0.5 °C -0.7 °C 1031.7 hPa West 0.3 km/h 3.2 km/h 92% 0.0 mm 14 W/m2
09:15 0.5 °C -0.7 °C 1032.1 hPa West 0.3 km/h 3.2 km/h 92% 0.0 mm 16 W/m2
09:20 0.4 °C -0.7 °C 1031.7 hPa Calm     92% 0.0 mm 18 W/m2
09:25 0.4 °C -0.7 °C 1032.1 hPa Calm     92% 0.0 mm 21 W/m2
09:30 0.4 °C -0.7 °C 1032.1 hPa West 0.3 km/h 3.2 km/h 92% 0.0 mm 26 W/m2
09:35 0.4 °C -0.7 °C 1032.1 hPa Calm     92% 0.0 mm 33 W/m2
09:40 0.4 °C -0.7 °C 1032.1 hPa Calm     92% 0.0 mm 39 W/m2
09:45 0.6 °C -0.4 °C 1032.1 hPa West 0.3 km/h 2.1 km/h 93% 0.0 mm 44 W/m2
09:50 0.6 °C -0.4 °C 1032.1 hPa West 0.3 km/h 4.8 km/h 93% 0.0 mm 44 W/m2
09:55 0.8 °C -0.2 °C 1032.1 hPa West 2.3 km/h 9.7 km/h 93% 0.0 mm 44 W/m2
10:00 0.9 °C -0.1 °C 1032.1 hPa West 3.1 km/h 9.7 km/h 93% 0.0 mm 49 W/m2
10:05 1.2 °C 0.2 °C 1032.1 hPa West 1.8 km/h 8.0 km/h 93% 0.0 mm 67 W/m2
10:10 1.5 °C 0.7 °C 1032.1 hPa WNW 2.1 km/h 8.0 km/h 94% 0.0 mm 46 W/m2
10:15 2.2 °C 1.1 °C 1032.1 hPa WNW 1.4 km/h 8.0 km/h 92% 0.3 mm 42 W/m2
10:20 2.5 °C 1.1 °C 1031.7 hPa WSW 3.7 km/h 12.9 km/h 90% 0.3 mm 39 W/m2
10:25 2.6 °C 1.0 °C 1031.7 hPa SSW 4.3 km/h 11.3 km/h 89% 0.3 mm 74 W/m2
10:30 2.7 °C 0.9 °C 1031.7 hPa West 7.1 km/h 12.9 km/h 88% 0.3 mm 93 W/m2
10:35 2.8 °C 0.8 °C 1031.7 hPa WNW 5.1 km/h 12.9 km/h 87% 0.3 mm 49 W/m2
10:40 2.8 °C 0.8 °C 1032.1 hPa WNW 5.5 km/h 11.3 km/h 87% 0.3 mm 63 W/m2
10:45 2.9 °C 0.9 °C 1032.1 hPa WSW 3.7 km/h 9.7 km/h 87% 0.3 mm 90 W/m2
10:50 3.1 °C 1.2 °C 1032.1 hPa West 3.7 km/h 9.7 km/h 87% 0.3 mm 104 W/m2
10:55 3.2 °C 1.1 °C 1031.7 hPa South 5.6 km/h 11.3 km/h 86% 0.3 mm 93 W/m2
11:00 3.3 °C 1.0 °C 1031.7 hPa SW 5.6 km/h 16.1 km/h 87% 0.3 mm 104 W/m2
11:05 3.4 °C 1.1 °C 1031.7 hPa SW 7.6 km/h 16.1 km/h 85% 0.3 mm 95 W/m2
11:10 3.6 °C 1.3 °C 1031.7 hPa West 3.4 km/h 11.3 km/h 85% 0.3 mm 137 W/m2
11:15 3.7 °C 1.3 °C 1031.7 hPa West 4.8 km/h 14.5 km/h 84% 0.0 mm 121 W/m2
11:20 3.7 °C 1.3 °C 1031.4 hPa West 3.9 km/h 16.1 km/h 84% 0.0 mm 113 W/m2
11:25 3.8 °C 1.3 °C 1031.4 hPa WNW 1.0 km/h 6.4 km/h 84% 0.0 mm 121 W/m2
11:30 3.9 °C 1.4 °C 1031.4 hPa West 2.7 km/h 13.2 km/h 84% 0.0 mm 128 W/m2
11:35 3.9 °C 1.3 °C 1031.4 hPa West 6.0 km/h 19.3 km/h 83% 0.0 mm 141 W/m2
11:40 3.9 °C 1.3 °C 1031.0 hPa West 1.0 km/h 4.8 km/h 83% 0.0 mm 146 W/m2
11:50 4.2 °C 1.6 °C 1031.0 hPa WNW 3.4 km/h 9.7 km/h 83% 0.0 mm 167 W/m2
11:55 4.3 °C 1.7 °C 1031.4 hPa WSW 1.1 km/h 6.4 km/h 83% 0.0 mm 156 W/m2
12:00 4.4 °C 1.8 °C 1031.4 hPa NW 1.6 km/h 6.4 km/h 83% 0.0 mm 160 W/m2
12:05 4.4 °C 1.8 °C 1031.4 hPa NW 1.6 km/h 6.4 km/h 83% 0.0 mm 160 W/m2
12:15 4.6 °C 1.6 °C 1031.0 hPa WSW 3.5 km/h 8.0 km/h 81% 0.0 mm 162 W/m2
12:20 4.7 °C 1.7 °C 1031.0 hPa WSW 2.7 km/h 8.0 km/h 81% 0.0 mm 188 W/m2
12:25 4.7 °C 1.7 °C 1031.0 hPa WSW 2.7 km/h 8.0 km/h 81% 0.0 mm 188 W/m2
12:30 4.9 °C 1.6 °C 1031.0 hPa WSW 0.5 km/h 4.8 km/h 79% 0.0 mm 146 W/m2
12:35 4.9 °C 1.6 °C 1031.0 hPa WSW 0.5 km/h 4.8 km/h 79% 0.0 mm 146 W/m2
12:45 5.1 °C 1.8 °C 1031.0 hPa WNW 2.7 km/h 8.0 km/h 79% 0.0 mm 128 W/m2
12:50 5.1 °C 1.8 °C 1030.7 hPa West 2.9 km/h 9.7 km/h 79% 0.0 mm 142 W/m2
12:55 5.1 °C 1.8 °C 1030.7 hPa WSW 3.9 km/h 14.5 km/h 79% 0.0 mm 123 W/m2
13:05 5.1 °C 1.6 °C 1030.4 hPa South 3.4 km/h 9.7 km/h 78% 0.0 mm 100 W/m2
13:10 5.1 °C 1.6 °C 1030.4 hPa WSW 3.1 km/h 9.7 km/h 78% 0.0 mm 98 W/m2
13:15 5.2 °C 1.7 °C 1030.4 hPa WNW 4.5 km/h 12.9 km/h 78% 0.0 mm 97 W/m2
13:20 5.2 °C 1.7 °C 1030.0 hPa WSW 5.1 km/h 14.5 km/h 78% 0.0 mm 93 W/m2
13:25 5.3 °C 1.8 °C 1030.0 hPa NNW 3.5 km/h 9.7 km/h 78% 0.0 mm 91 W/m2
13:30 5.3 °C 1.8 °C 1030.0 hPa WNW 2.6 km/h 6.4 km/h 78% 0.0 mm 90 W/m2
13:35 5.4 °C 1.7 °C 1030.4 hPa WNW 4.0 km/h 9.7 km/h 77% 0.0 mm 88 W/m2
13:40 5.4 °C 1.7 °C 1030.4 hPa WNW 2.3 km/h 4.8 km/h 77% 0.0 mm 86 W/m2
13:45 5.5 °C 1.8 °C 1030.4 hPa WSW 4.3 km/h 14.5 km/h 77% 0.0 mm 84 W/m2
13:50 5.6 °C 1.9 °C 1030.4 hPa West 2.4 km/h 8.0 km/h 77% 0.0 mm 98 W/m2
13:55 5.6 °C 1.9 °C 1030.0 hPa WSW 1.8 km/h 6.4 km/h 77% 0.0 mm 155 W/m2
14:00 5.6 °C 1.9 °C 1030.0 hPa WNW 3.1 km/h 12.9 km/h 77% 0.0 mm 137 W/m2
14:05 5.7 °C 1.8 °C 1030.0 hPa WNW 1.0 km/h 4.8 km/h 76% 0.0 mm 121 W/m2
14:10 5.7 °C 1.8 °C 1029.7 hPa West 0.6 km/h 4.8 km/h 76% 0.0 mm 127 W/m2
14:15 5.7 °C 1.8 °C 1029.7 hPa West 1.9 km/h 8.0 km/h 76% 0.0 mm 93 W/m2
14:20 5.8 °C 1.9 °C 1029.7 hPa WSW 1.9 km/h 6.4 km/h 76% 0.0 mm 81 W/m2
14:25 5.8 °C 1.9 °C 1029.7 hPa Calm   1.6 km/h 76% 0.0 mm 65 W/m2
14:30 5.8 °C 1.9 °C 1029.7 hPa WSW 0.2 km/h 1.6 km/h 76% 0.0 mm 54 W/m2
14:35 5.8 °C 1.7 °C 1029.7 hPa WSW 0.3 km/h 3.2 km/h 75% 0.0 mm 51 W/m2
14:40 5.8 °C 1.7 °C 1029.7 hPa WSW 0.3 km/h 1.6 km/h 75% 0.0 mm 46 W/m2
14:45 5.8 °C 1.7 °C 1029.7 hPa WSW 1.8 km/h 6.4 km/h 75% 0.0 mm 49 W/m2
14:50 5.8 °C 1.7 °C 1029.7 hPa WNW 3.5 km/h 12.9 km/h 75% 0.0 mm 51 W/m2
15:00 5.9 °C 1.6 °C 1029.7 hPa West 1.4 km/h 4.8 km/h 74% 0.0 mm 47 W/m2
15:05 6.0 °C 1.7 °C 1029.7 hPa West 0.6 km/h 6.4 km/h 74% 0.0 mm 54 W/m2
15:10 6.1 °C 1.8 °C 1029.7 hPa West 0.3 km/h 3.2 km/h 74% 0.0 mm 54 W/m2
15:15 6.1 °C 1.8 °C 1029.7 hPa West 0.3 km/h 4.8 km/h 74% 0.0 mm 56 W/m2
15:25 6.1 °C 1.8 °C 1029.7 hPa WNW 1.6 km/h 8.0 km/h 74% 0.0 mm 47 W/m2
15:30 6.1 °C 1.6 °C 1029.7 hPa West 4.2 km/h 9.7 km/h 73% 0.0 mm 44 W/m2
15:35 6.1 °C 1.6 °C 1029.7 hPa West 2.6 km/h 8.0 km/h 73% 0.0 mm 46 W/m2
15:45 6.2 °C 1.6 °C 1029.3 hPa West 2.3 km/h 8.0 km/h 72% 0.0 mm 42 W/m2
15:50 6.2 °C 1.6 °C 1029.3 hPa WSW 0.3 km/h 4.8 km/h 72% 0.0 mm 39 W/m2
15:55 6.2 °C 1.6 °C 1029.3 hPa WSW 0.3 km/h 1.6 km/h 72% 0.0 mm 35 W/m2
16:00 6.2 °C 1.6 °C 1029.3 hPa WSW 0.2 km/h 4.8 km/h 72% 0.0 mm 30 W/m2
16:05 6.2 °C 1.7 °C 1029.7 hPa WSW 0.3 km/h 3.2 km/h 73% 0.0 mm 25 W/m2
16:15 6.1 °C 1.6 °C 1029.3 hPa Calm   1.6 km/h 73% 0.0 mm 14 W/m2
16:20 6.1 °C 1.6 °C 1029.3 hPa Calm     73% 0.0 mm 12 W/m2
16:25 6.0 °C 1.6 °C 1029.7 hPa WSW 0.6 km/h 4.8 km/h 73% 0.0 mm 11 W/m2
16:30 5.9 °C 1.4 °C 1029.7 hPa Calm     73% 0.0 mm 9 W/m2
16:35 5.9 °C 1.6 °C 1029.7 hPa Calm   1.6 km/h 74% 0.0 mm 7 W/m2
16:40 5.8 °C 1.6 °C 1029.3 hPa Calm     74% 0.0 mm 5 W/m2
16:50 5.7 °C 1.6 °C 1029.3 hPa Calm     75% 0.0 mm 11 W/m2
17:00 5.3 °C 1.2 °C 1029.0 hPa Calm     75% 0.0 mm 0 W/m2
17:05 5.3 °C 1.2 °C 1029.0 hPa Calm     75% 0.0 mm 0 W/m2
17:15 5.1 °C 1.2 °C 1028.7 hPa Calm     76% 0.0 mm 0 W/m2
17:20 5.1 °C 1.2 °C 1028.7 hPa WSW 0.2 km/h 1.6 km/h 76% 0.0 mm 0 W/m2
17:25 4.9 °C 1.2 °C 1029.0 hPa WSW 0.2 km/h 3.2 km/h 77% 0.0 mm 0 W/m2
17:35 4.7 °C 1.0 °C 1028.7 hPa WSW 0.3 km/h 3.2 km/h 77% 0.0 mm 0 W/m2
17:40 4.7 °C 1.0 °C 1029.0 hPa Calm     77% 0.0 mm 0 W/m2
17:45 4.6 °C 0.9 °C 1029.3 hPa Calm     77% 0.0 mm 0 W/m2
17:55 4.6 °C 0.9 °C 1029.3 hPa WSW 0.2 km/h 1.6 km/h 77% 0.0 mm 0 W/m2
18:05 4.5 °C 0.8 °C 1029.0 hPa Calm     77% 0.0 mm 0 W/m2
18:10 4.4 °C 0.7 °C 1028.7 hPa Calm     77% 0.0 mm 0 W/m2
18:20 4.3 °C 0.8 °C 1028.3 hPa Calm     78% 0.0 mm 0 W/m2
18:25 4.3 °C 0.6 °C 1028.3 hPa West 0.3 km/h 6.4 km/h 77% 0.0 mm 0 W/m2
18:30 4.3 °C 0.4 °C 1028.3 hPa WNW 1.8 km/h 8.0 km/h 76% 0.0 mm 0 W/m2
18:35 4.4 °C 0.6 °C 1028.7 hPa WNW 1.0 km/h 4.8 km/h 76% 0.0 mm 0 W/m2
18:40 4.5 °C 0.4 °C 1029.0 hPa WNW 0.3 km/h 3.2 km/h 75% 0.0 mm 0 W/m2
18:50 4.7 °C 0.7 °C 1028.7 hPa WSW 1.8 km/h 8.0 km/h 75% 0.0 mm 0 W/m2
18:55 4.8 °C 0.6 °C 1028.7 hPa WSW 0.3 km/h 4.8 km/h 74% 0.0 mm 0 W/m2
19:00 4.8 °C 0.6 °C 1028.7 hPa WSW 0.8 km/h 4.8 km/h 74% 0.0 mm 0 W/m2
19:15 4.9 °C 0.5 °C 1028.3 hPa WSW 1.0 km/h 6.4 km/h 73% 0.0 mm 0 W/m2
19:20 5.0 °C 0.8 °C 1028.7 hPa WSW 0.2 km/h 1.6 km/h 74% 0.0 mm 0 W/m2
19:30 5.0 °C 0.8 °C 1029.0 hPa WSW 0.2 km/h 1.6 km/h 74% 0.0 mm 0 W/m2
19:35 5.1 °C 0.8 °C 1029.0 hPa WSW 0.2 km/h 1.6 km/h 74% 0.0 mm 0 W/m2
19:40 5.1 °C 0.8 °C 1029.0 hPa WSW 0.2 km/h 1.6 km/h 74% 0.0 mm 0 W/m2
19:45 5.1 °C 0.8 °C 1029.0 hPa Calm     74% 0.0 mm 0 W/m2
19:50 5.2 °C 0.9 °C 1029.0 hPa Calm     74% 0.0 mm 0 W/m2
19:55 5.2 °C 0.9 °C 1029.0 hPa WSW 0.2 km/h 1.6 km/h 74% 0.0 mm 0 W/m2
20:00 5.2 °C 0.9 °C 1029.0 hPa WSW 0.2 km/h 1.6 km/h 74% 0.0 mm 0 W/m2
20:05 5.2 °C 0.8 °C 1029.0 hPa Calm     73% 0.0 mm 0 W/m2
20:10 5.2 °C 0.8 °C 1029.0 hPa Calm     73% 0.0 mm 0 W/m2
20:15 5.2 °C 0.8 °C 1029.0 hPa Calm     73% 0.0 mm 0 W/m2
20:20 5.1 °C 0.8 °C 1029.0 hPa Calm   1.6 km/h 74% 0.0 mm 0 W/m2
20:25 5.1 °C 0.8 °C 1029.3 hPa Calm     74% 0.0 mm 0 W/m2
20:30 5.1 °C 0.8 °C 1029.3 hPa Calm     74% 0.0 mm 0 W/m2
20:35 5.0 °C 0.8 °C 1029.3 hPa Calm     74% 0.0 mm 0 W/m2
20:45 4.9 °C 0.8 °C 1029.3 hPa Calm     75% 0.0 mm 0 W/m2
20:50 4.8 °C 0.8 °C 1029.3 hPa Calm     75% 0.0 mm 0 W/m2
21:05 4.5 °C 0.7 °C 1029.0 hPa Calm     76% 0.0 mm 0 W/m2
21:10 4.3 °C 0.6 °C 1029.3 hPa WSW 0.2 km/h 1.6 km/h 77% 0.0 mm 0 W/m2
21:15 4.2 °C 0.6 °C 1029.0 hPa WSW 0.3 km/h 3.2 km/h 77% 0.0 mm 0 W/m2
21:20 4.0 °C 0.5 °C 1029.0 hPa Calm   1.6 km/h 78% 0.0 mm 0 W/m2
21:25 3.9 °C 0.4 °C 1029.0 hPa Calm     78% 0.0 mm 0 W/m2
21:30 3.8 °C 0.3 °C 1029.0 hPa Calm     78% 0.0 mm 0 W/m2
21:35 3.6 °C 0.1 °C 1029.3 hPa Calm     78% 0.0 mm 0 W/m2
Tägerwilen, Thurgau, Switzerland
Compliments of Weather Underground